Time;durP1;ratioP1;P1;durP2;ratioP2;P2;SDS_P1;SDS_P2;PMS_P1;PMS_P2;Temp;Humidity;BMP_temperature;BMP_pressure;BME280_temperature;BME280_humidity;BME280_pressure;Samples;Min_cycle;Max_cycle;Signal;HPM_P1;HPM_P2
2023/08/26 00:00:11;;;;;;;2.78;0.82;;;;;;;15.25;100.00;100215.00;5036557;28;20095;-73
2023/08/26 00:02:57;;;;;;;0.80;0.50;;;;;;;15.25;100.00;100213.00;5007147;28;20037;-73
2023/08/26 00:05:43;;;;;;;2.75;0.70;;;;;;;15.23;100.00;100211.69;5024349;28;20032;-73
2023/08/26 00:08:29;;;;;;;2.90;0.68;;;;;;;15.23;100.00;100206.09;5024235;28;20043;-73
2023/08/26 00:11:14;;;;;;;2.25;0.63;;;;;;;15.18;100.00;100207.94;5010618;28;20038;-73
2023/08/26 00:14:00;;;;;;;3.30;0.90;;;;;;;15.18;100.00;100205.13;5024673;28;20490;-73
2023/08/26 00:16:46;;;;;;;2.17;0.82;;;;;;;15.19;100.00;100200.34;5024606;28;20061;-73
2023/08/26 00:19:32;;;;;;;1.55;0.65;;;;;;;15.19;100.00;100203.16;5010929;28;20124;-73
2023/08/26 00:22:18;;;;;;;1.60;0.70;;;;;;;15.22;100.00;100204.47;5024083;28;20088;-73
2023/08/26 00:25:04;;;;;;;1.65;0.70;;;;;;;15.23;100.00;100201.31;5024588;28;20040;-73
2023/08/26 00:27:50;;;;;;;5.10;0.73;;;;;;;15.29;100.00;100197.19;5010341;28;20033;-73
2023/08/26 00:30:36;;;;;;;4.78;0.90;;;;;;;15.28;100.00;100206.75;5024061;28;20516;-73
2023/08/26 00:33:21;;;;;;;2.47;0.70;;;;;;;15.30;100.00;100198.03;5036546;28;20041;-73
2023/08/26 00:36:07;;;;;;;2.03;0.70;;;;;;;15.32;100.00;100198.50;5035941;28;20406;-73
2023/08/26 00:38:53;;;;;;;2.30;0.80;;;;;;;15.29;100.00;100194.38;5024115;28;20036;-73
2023/08/26 00:41:39;;;;;;;3.00;0.80;;;;;;;15.29;100.00;100194.38;5012514;28;20096;-73
2023/08/26 00:44:25;;;;;;;2.40;0.85;;;;;;;15.31;100.00;100197.69;5025642;28;20076;-73
2023/08/26 00:47:10;;;;;;;1.98;0.60;;;;;;;15.34;100.00;100199.81;5024019;28;20440;-73
2023/08/26 00:49:56;;;;;;;1.42;0.80;;;;;;;15.30;100.00;100198.84;5004665;28;20592;-73
2023/08/26 00:52:42;;;;;;;1.35;0.70;;;;;;;15.28;100.00;100201.16;5017043;28;20029;-73
2023/08/26 00:55:28;;;;;;;3.92;0.75;;;;;;;15.25;100.00;100182.25;5009548;28;20090;-73
2023/08/26 00:58:14;;;;;;;4.03;0.70;;;;;;;15.23;100.00;100186.53;5024280;28;20038;-73
2023/08/26 01:01:00;;;;;;;1.10;0.50;;;;;;;15.20;100.00;100179.63;5023753;28;20037;-73
2023/08/26 01:03:45;;;;;;;2.70;0.90;;;;;;;15.20;100.00;100190.81;5004061;28;20065;-73
2023/08/26 01:06:31;;;;;;;1.83;0.63;;;;;;;15.12;100.00;100175.69;5019145;28;20083;-73
2023/08/26 01:09:18;;;;;;;2.28;0.98;;;;;;;15.08;100.00;100177.50;5023557;28;20124;-73
2023/08/26 01:12:16;;;;;;;4.40;0.90;;;;;;;15.10;100.00;100174.38;5026634;28;20442;-73
2023/08/26 01:15:08;;;;;;;2.95;0.80;;;;;;;15.07;100.00;100180.63;5024173;28;20029;-73
2023/08/26 01:17:53;;;;;;;3.13;0.77;;;;;;;15.02;100.00;100178.84;5009659;28;20060;-73
2023/08/26 01:20:41;;;;;;;2.28;0.90;;;;;;;14.97;100.00;100182.63;5035091;28;20037;-73
2023/08/26 01:23:41;;;;;;;2.78;0.80;;;;;;;14.97;100.00;100179.00;5037183;28;20079;-73
2023/08/26 01:26:26;;;;;;;3.13;0.80;;;;;;;14.92;100.00;100185.59;5011012;28;20052;-73
2023/08/26 01:29:12;;;;;;;1.75;0.70;;;;;;;14.88;100.00;100169.81;5035410;28;20087;-73
2023/08/26 01:32:10;;;;;;;1.88;0.70;;;;;;;14.87;100.00;100170.97;5023359;28;20029;-73
2023/08/26 01:34:57;;;;;;;4.00;1.00;;;;;;;14.87;100.00;100168.97;5036924;28;20030;-73
2023/08/26 01:37:44;;;;;;;1.55;0.70;;;;;;;14.81;100.00;100167.50;5009477;28;20073;-73
2023/08/26 01:40:30;;;;;;;2.53;0.77;;;;;;;14.78;100.00;100164.56;5023172;28;20037;-73
2023/08/26 01:43:16;;;;;;;2.60;1.02;;;;;;;14.74;100.00;100161.63;5023235;28;20375;-73
2023/08/26 01:46:01;;;;;;;2.70;0.73;;;;;;;14.76;100.00;100170.47;5023106;28;20036;-73
2023/08/26 01:48:47;;;;;;;1.00;0.68;;;;;;;14.73;100.00;100155.19;5009494;28;20038;-73
2023/08/26 01:51:33;;;;;;;5.45;1.13;;;;;;;14.71;100.00;100153.91;5035966;28;20026;-73
2023/08/26 01:54:19;;;;;;;2.85;0.90;;;;;;;14.67;100.00;100164.09;5023118;28;20037;-73
2023/08/26 01:57:04;;;;;;;1.95;0.80;;;;;;;14.67;100.00;100150.91;4990774;28;20033;-73
2023/08/26 01:59:51;;;;;;;3.67;0.90;;;;;;;14.61;100.00;100151.44;5034556;28;20044;-73
2023/08/26 02:02:36;;;;;;;3.15;1.20;;;;;;;14.57;100.00;100156.88;5023017;28;20068;-73
2023/08/26 02:05:22;;;;;;;2.38;0.80;;;;;;;14.59;100.00;100148.13;5022952;28;20065;-73
2023/08/26 02:08:08;;;;;;;3.40;0.90;;;;;;;14.53;100.00;100148.31;5020491;28;20087;-73
2023/08/26 02:10:57;;;;;;;5.80;0.85;;;;;;;14.49;100.00;100144.50;5022893;28;20459;-73
2023/08/26 02:13:42;;;;;;;2.47;0.75;;;;;;;14.45;100.00;100157.47;5006901;28;20076;-73
2023/08/26 02:16:28;;;;;;;1.70;0.70;;;;;;;14.43;100.00;100151.41;5007846;28;20042;-73
2023/08/26 02:19:14;;;;;;;1.58;0.70;;;;;;;14.44;100.00;100141.06;5004988;28;20152;-73
2023/08/26 02:22:01;;;;;;;1.30;0.70;;;;;;;14.40;100.00;100148.44;5002888;28;20030;-73
2023/08/26 02:24:46;;;;;;;2.35;0.82;;;;;;;14.38;100.00;100154.38;5010586;28;20120;-72
2023/08/26 02:27:32;;;;;;;2.47;0.70;;;;;;;14.39;100.00;100144.00;5022775;28;20029;-73
2023/08/26 02:30:18;;;;;;;4.20;0.80;;;;;;;14.35;100.00;100155.03;5025333;28;20406;-73
2023/08/26 02:33:06;;;;;;;3.05;0.80;;;;;;;14.34;100.00;100144.97;5012974;28;20059;-73
2023/08/26 02:35:52;;;;;;;1.83;0.90;;;;;;;14.27;100.00;100141.88;5038671;28;20542;-73
2023/08/26 02:38:38;;;;;;;1.77;0.70;;;;;;;14.25;100.00;100133.00;5026457;28;20037;-73
2023/08/26 02:41:24;;;;;;;2.67;0.70;;;;;;;14.27;100.00;100137.09;5020037;28;20036;-73
2023/08/26 02:44:10;;;;;;;4.53;0.82;;;;;;;14.24;100.00;100137.75;5025451;28;20097;-73
2023/08/26 02:46:55;;;;;;;1.83;0.75;;;;;;;14.19;100.00;100129.53;5038306;28;20089;-73
2023/08/26 02:49:41;;;;;;;1.20;0.70;;;;;;;14.18;100.00;100127.91;5006619;28;20026;-73
2023/08/26 02:52:27;;;;;;;1.85;0.80;;;;;;;14.13;100.00;100127.25;5026892;28;20478;-73
2023/08/26 02:55:13;;;;;;;0.95;0.60;;;;;;;14.14;100.00;100128.88;5038669;28;20037;-73
2023/08/26 02:57:59;;;;;;;2.80;0.60;;;;;;;14.07;100.00;100126.59;5038777;28;20056;-73
2023/08/26 03:00:45;;;;;;;3.33;0.90;;;;;;;14.05;100.00;100118.53;5025864;28;20041;-73
2023/08/26 03:03:31;;;;;;;2.05;0.80;;;;;;;14.03;100.00;100115.22;5026299;28;20040;-73
2023/08/26 03:06:17;;;;;;;2.28;0.85;;;;;;;14.05;100.00;100110.16;5038670;28;20112;-73
2023/08/26 03:09:03;;;;;;;1.55;0.70;;;;;;;14.00;100.00;100109.47;5019300;28;20097;-73
2023/08/26 03:11:49;;;;;;;3.47;0.80;;;;;;;14.05;100.00;100107.34;5008077;28;20041;-73
2023/08/26 03:14:34;;;;;;;1.23;0.80;;;;;;;14.02;100.00;100105.22;5036411;28;20034;-72
2023/08/26 03:17:20;;;;;;;2.08;0.93;;;;;;;13.99;100.00;100103.09;5005859;28;20041;-73
2023/08/26 03:20:06;;;;;;;2.55;0.80;;;;;;;13.97;100.00;100094.22;5015325;28;20033;-73
2023/08/26 03:22:52;;;;;;;1.85;0.85;;;;;;;13.96;100.00;100094.56;5024954;28;20037;-73
2023/08/26 03:25:38;;;;;;;3.38;0.85;;;;;;;13.93;100.00;100090.44;5011332;28;20098;-73
2023/08/26 03:28:24;;;;;;;3.33;1.00;;;;;;;13.94;100.00;100094.88;5025602;28;20030;-73
2023/08/26 03:31:10;;;;;;;1.92;0.75;;;;;;;13.94;100.00;100094.88;5011864;28;20038;-73
2023/08/26 03:33:56;;;;;;;3.92;0.80;;;;;;;13.91;100.00;100089.94;5024829;28;20457;-73
2023/08/26 03:36:41;;;;;;;2.35;0.93;;;;;;;13.92;100.00;100090.75;5037838;28;20455;-73
2023/08/26 03:39:27;;;;;;;1.88;0.70;;;;;;;13.92;100.00;100087.97;5011449;28;20052;-73
2023/08/26 03:42:13;;;;;;;2.50;0.80;;;;;;;13.86;100.00;100085.31;5011666;28;20509;-73
2023/08/26 03:44:59;;;;;;;1.25;0.70;;;;;;;13.88;100.00;100085.00;5011232;28;20033;-73
2023/08/26 03:47:44;;;;;;;1.88;0.70;;;;;;;13.83;100.00;100091.56;5037955;28;20040;-73
2023/08/26 03:50:30;;;;;;;2.78;0.95;;;;;;;13.83;100.00;100085.16;5024164;28;20029;-73
2023/08/26 03:53:16;;;;;;;2.72;0.93;;;;;;;13.80;100.00;100075.47;5011447;28;20056;-73
2023/08/26 03:56:02;;;;;;;2.38;1.00;;;;;;;13.79;100.00;100079.41;5018955;28;20038;-73
2023/08/26 03:58:50;;;;;;;3.25;0.90;;;;;;;13.80;100.00;100078.25;5018334;28;20037;-73
2023/08/26 04:01:35;;;;;;;3.97;0.90;;;;;;;13.78;100.00;100074.16;5022755;28;20044;-73
2023/08/26 04:04:21;;;;;;;2.28;0.90;;;;;;;13.76;100.00;100077.28;5024851;28;20452;-73
2023/08/26 04:07:07;;;;;;;3.38;0.90;;;;;;;13.75;100.00;100075.63;5017310;28;20036;-73
2023/08/26 04:09:53;;;;;;;2.13;0.98;;;;;;;13.73;100.00;100069.53;5035545;28;20044;-73
2023/08/26 04:12:38;;;;;;;3.05;0.90;;;;;;;13.75;100.00;100069.22;5024647;28;20042;-73
2023/08/26 04:15:24;;;;;;;2.55;0.95;;;;;;;13.70;100.00;100075.78;5038400;28;20026;-73
2023/08/26 04:18:10;;;;;;;1.85;0.80;;;;;;;13.70;100.00;100086.13;5037374;28;20037;-73
2023/08/26 04:20:56;;;;;;;3.13;1.00;;;;;;;13.71;100.00;100082.19;5007063;28;20419;-73
2023/08/26 04:23:41;;;;;;;2.13;0.90;;;;;;;13.70;100.00;100074.97;5025018;28;20034;-73
2023/08/26 04:26:27;;;;;;;1.92;1.00;;;;;;;13.65;100.00;100075.94;5024444;28;20029;-73
2023/08/26 04:29:13;;;;;;;2.42;1.10;;;;;;;13.69;100.00;100060.19;5024170;28;20056;-73
2023/08/26 04:31:59;;;;;;;1.80;0.65;;;;;;;13.67;100.00;100061.66;5024298;28;20471;-73
2023/08/26 04:34:45;;;;;;;1.95;0.82;;;;;;;13.63;100.00;100076.25;5017950;28;20029;-73
2023/08/26 04:37:31;;;;;;;3.55;0.73;;;;;;;13.62;100.00;100068.22;5023640;28;20045;-73
2023/08/26 04:40:18;;;;;;;1.67;0.82;;;;;;;13.64;100.00;100069.53;5024770;28;20470;-73
2023/08/26 04:43:04;;;;;;;2.33;0.88;;;;;;;13.60;100.00;100079.72;5023428;28;20038;-73
2023/08/26 04:45:52;;;;;;;1.45;0.70;;;;;;;13.56;100.00;100087.06;5009941;28;20059;-73
2023/08/26 04:48:38;;;;;;;2.03;0.90;;;;;;;13.52;100.00;100091.66;5010281;28;20493;-73
2023/08/26 04:51:24;;;;;;;3.30;1.10;;;;;;;13.51;100.00;100103.13;5023193;28;20041;-73
2023/08/26 04:54:10;;;;;;;3.55;1.00;;;;;;;13.59;100.00;100097.56;5023471;28;20110;-73
2023/08/26 04:56:56;;;;;;;1.83;0.80;;;;;;;13.52;100.00;100094.47;5023450;28;20056;-73
2023/08/26 04:59:41;;;;;;;1.75;0.88;;;;;;;13.53;100.00;100098.88;5004862;28;20033;-73
2023/08/26 05:02:27;;;;;;;1.65;0.98;;;;;;;13.52;100.00;100102.00;5004067;28;20034;-73
2023/08/26 05:05:13;;;;;;;3.28;1.02;;;;;;;13.46;100.00;100101.34;4990475;28;20108;-73
2023/08/26 05:07:59;;;;;;;2.20;1.05;;;;;;;13.45;100.00;100098.84;5020699;28;20120;-73
2023/08/26 05:10:45;;;;;;;3.00;1.27;;;;;;;13.45;100.00;100105.25;5024186;28;20037;-73
2023/08/26 05:13:30;;;;;;;2.47;0.90;;;;;;;13.41;100.00;100107.06;5016603;28;20037;-73
2023/08/26 05:16:16;;;;;;;4.63;1.20;;;;;;;13.48;100.00;100112.16;5047719;28;20037;-73
2023/08/26 05:19:02;;;;;;;2.20;1.00;;;;;;;13.42;100.00;100108.69;5036085;28;20049;-73
2023/08/26 05:21:48;;;;;;;1.65;0.80;;;;;;;13.46;100.00;100120.88;5023244;28;20037;-73
2023/08/26 05:24:34;;;;;;;3.38;1.10;;;;;;;13.44;100.00;100116.75;5023481;28;20033;-73
2023/08/26 05:27:22;;;;;;;3.42;1.05;;;;;;;13.41;100.00;100116.25;5023364;28;20033;-73
2023/08/26 05:30:08;;;;;;;4.07;1.45;;;;;;;13.44;100.00;100120.34;5004255;28;20050;-73
2023/08/26 05:32:54;;;;;;;2.20;0.80;;;;;;;13.45;100.00;100119.19;5010496;28;20041;-73
2023/08/26 05:35:40;;;;;;;1.98;0.80;;;;;;;13.47;100.00;100122.50;5009368;28;20041;-73
2023/08/26 05:38:26;;;;;;;2.53;1.15;;;;;;;13.48;100.00;100117.72;5022277;28;20033;-73
2023/08/26 05:41:11;;;;;;;3.45;1.00;;;;;;;13.48;100.00;100118.56;5009614;28;20050;-73
2023/08/26 05:43:57;;;;;;;2.30;0.90;;;;;;;13.52;100.00;100122.34;5010532;28;20121;-73
2023/08/26 05:46:43;;;;;;;3.67;1.02;;;;;;;13.49;100.00;100122.19;5017165;28;20030;-73
2023/08/26 05:49:29;;;;;;;2.33;1.02;;;;;;;13.56;100.00;100114.16;5003483;28;20064;-73
2023/08/26 05:52:15;;;;;;;1.85;0.90;;;;;;;13.64;100.00;100116.97;5010238;28;20108;-73
2023/08/26 05:55:00;;;;;;;2.35;1.10;;;;;;;13.67;100.00;100118.28;5023083;28;20452;-73
2023/08/26 05:57:46;;;;;;;2.78;0.93;;;;;;;13.72;100.00;100115.34;5003580;28;20041;-73
2023/08/26 06:00:32;;;;;;;2.63;1.00;;;;;;;13.77;100.00;100112.41;5011257;28;20026;-73
2023/08/26 06:03:18;;;;;;;2.53;0.88;;;;;;;13.83;100.00;100110.28;5023803;28;20048;-76
2023/08/26 06:06:05;;;;;;;3.88;1.00;;;;;;;13.89;100.00;100105.38;5038854;28;20065;-73
2023/08/26 06:08:51;;;;;;;3.63;1.23;;;;;;;13.95;100.00;100110.47;5027135;28;20118;-73
2023/08/26 06:11:38;;;;;;;4.82;1.25;;;;;;;13.98;100.00;100107.00;5013156;28;20409;-72
2023/08/26 06:14:24;;;;;;;2.40;1.02;;;;;;;14.05;100.00;100098.16;5027626;28;20519;-73
2023/08/26 06:17:10;;;;;;;3.70;1.00;;;;;;;14.13;100.00;100102.13;5020357;28;20037;-73
2023/08/26 06:19:56;;;;;;;4.32;1.13;;;;;;;14.20;100.00;100105.22;5007902;28;20042;-73
2023/08/26 06:22:42;;;;;;;4.88;1.00;;;;;;;14.25;100.00;100102.28;5041101;28;20057;-73
2023/08/26 06:25:28;;;;;;;4.65;1.00;;;;;;;14.33;100.00;100109.84;5027387;28;20034;-73
2023/08/26 06:28:14;;;;;;;2.13;0.90;;;;;;;14.37;100.00;100113.59;5026555;28;20071;-73
2023/08/26 06:31:00;;;;;;;2.58;1.17;;;;;;;14.40;100.00;100101.78;5026312;28;20045;-73
2023/08/26 06:33:46;;;;;;;5.53;1.05;;;;;;;14.44;100.00;100107.53;5008088;28;20040;-73
2023/08/26 06:36:32;;;;;;;6.55;1.10;;;;;;;14.50;100.00;100095.84;5026095;28;20107;-73
2023/08/26 06:39:18;;;;;;;5.63;1.15;;;;;;;14.57;100.00;100100.13;5006898;28;20026;-73
2023/08/26 06:42:04;;;;;;;4.57;1.20;;;;;;;14.65;100.00;100091.72;5021567;28;20046;-73
2023/08/26 06:44:50;;;;;;;4.70;1.08;;;;;;;14.75;100.00;100099.78;5011765;28;20071;-73
2023/08/26 06:47:36;;;;;;;2.30;0.90;;;;;;;14.90;100.00;100100.41;5006545;28;20033;-73
2023/08/26 06:50:22;;;;;;;4.15;1.10;;;;;;;15.04;100.00;100100.19;5011612;28;20037;-73
2023/08/26 06:53:08;;;;;;;6.53;1.27;;;;;;;15.20;100.00;100101.28;5024920;28;20497;-73
2023/08/26 06:55:54;;;;;;;3.95;1.25;;;;;;;15.36;100.00;100101.56;5021729;28;20552;-73
2023/08/26 06:58:40;;;;;;;7.47;1.52;;;;;;;15.51;100.00;100111.34;5011974;28;20092;-73
2023/08/26 07:01:26;;;;;;;2.30;1.00;;;;;;;15.68;100.00;100105.69;5025874;28;20041;-73
2023/08/26 07:04:12;;;;;;;5.68;1.10;;;;;;;15.85;100.00;100104.75;5006195;28;20045;-73
2023/08/26 07:06:58;;;;;;;5.88;1.08;;;;;;;16.04;100.00;100095.91;5027524;28;20040;-73
2023/08/26 07:09:43;;;;;;;4.18;1.02;;;;;;;16.22;100.00;100088.19;5008059;28;20084;-73
2023/08/26 07:12:30;;;;;;;3.33;1.08;;;;;;;16.43;100.00;100090.97;5005292;28;20036;-73
2023/08/26 07:15:16;;;;;;;4.53;1.25;;;;;;;16.61;100.00;100084.03;5010784;28;20406;-73
2023/08/26 07:18:02;;;;;;;5.90;0.85;;;;;;;16.82;100.00;100086.00;5038265;28;20556;-74
2023/08/26 07:20:48;;;;;;;6.15;1.30;;;;;;;17.07;100.00;100086.88;5024756;28;20040;-73
2023/08/26 07:23:34;;;;;;;3.88;1.00;;;;;;;17.25;100.00;100087.50;5025561;28;20033;-73
2023/08/26 07:26:20;;;;;;;5.45;1.20;;;;;;;17.43;100.00;100084.09;5011593;28;20034;-73
2023/08/26 07:29:06;;;;;;;8.02;0.90;;;;;;;17.71;100.00;100083.38;5024764;28;20045;-73
2023/08/26 07:31:52;;;;;;;6.10;0.75;;;;;;;17.90;100.00;100088.44;5011190;28;20441;-73
2023/08/26 07:34:38;;;;;;;5.25;0.90;;;;;;;18.12;100.00;100089.09;5008943;28;20026;-73
2023/08/26 07:37:23;;;;;;;3.80;0.80;;;;;;;18.30;100.00;100077.22;5020802;28;20029;-73
2023/08/26 07:40:13;;;;;;;6.35;1.30;;;;;;;18.48;100.00;100086.16;5005375;28;20038;-73
2023/08/26 07:42:59;;;;;;;4.85;1.05;;;;;;;18.70;100.00;100073.50;5028117;28;20049;-73
2023/08/26 07:45:45;;;;;;;7.43;1.00;;;;;;;18.92;100.00;100079.75;5005505;28;20038;-73
2023/08/26 07:48:31;;;;;;;5.78;1.00;;;;;;;19.13;100.00;100073.88;5019696;28;20119;-73
2023/08/26 07:51:17;;;;;;;5.32;0.75;;;;;;;19.32;100.00;100076.78;5024743;28;20105;-73
2023/08/26 07:54:03;;;;;;;5.95;0.65;;;;;;;19.54;100.00;100078.13;5023608;28;20040;-73
2023/08/26 07:56:49;;;;;;;4.85;1.15;;;;;;;19.76;100.00;100085.13;5036969;28;20037;-73
2023/08/26 07:59:35;;;;;;;5.32;1.20;;;;;;;19.97;100.00;100078.34;5018428;28;20033;-73
2023/08/26 08:02:21;;;;;;;2.35;0.70;;;;;;;20.18;100.00;100081.63;5018260;28;20038;-73
2023/08/26 08:05:07;;;;;;;5.25;1.13;;;;;;;20.44;100.00;100068.88;5022112;28;20525;-73
2023/08/26 08:07:53;;;;;;;5.47;0.85;;;;;;;20.59;100.00;100075.66;5024847;28;20038;-73
2023/08/26 08:10:38;;;;;;;5.65;1.30;;;;;;;20.66;100.00;100078.63;5025594;28;20041;-73
2023/08/26 08:13:24;;;;;;;5.38;0.70;;;;;;;20.84;100.00;100079.78;5026130;28;20112;-73
2023/08/26 08:16:10;;;;;;;4.20;0.65;;;;;;;20.97;100.00;100081.22;5008149;28;20034;-73
2023/08/26 08:18:56;;;;;;;3.50;0.63;;;;;;;21.10;100.00;100078.25;5004852;28;20042;-73
2023/08/26 08:21:41;;;;;;;4.22;0.80;;;;;;;21.15;100.00;100084.38;5013769;28;20041;-73
2023/08/26 08:24:27;;;;;;;5.97;1.00;;;;;;;21.23;100.00;100090.16;5024395;28;20044;-73
2023/08/26 08:27:13;;;;;;;2.80;0.80;;;;;;;21.31;100.00;100087.09;5010044;28;20505;-74
2023/08/26 08:29:59;;;;;;;6.22;1.02;;;;;;;21.30;100.00;100087.47;5023850;28;20056;-73
2023/08/26 08:32:45;;;;;;;6.03;0.80;;;;;;;21.34;100.00;100093.97;5037009;28;20030;-73
2023/08/26 08:35:31;;;;;;;4.82;0.98;;;;;;;21.38;100.00;100087.22;5027964;28;20039;-73
2023/08/26 08:38:17;;;;;;;3.80;0.90;;;;;;;21.41;100.00;100096.97;5024250;28;20485;-73
2023/08/26 08:41:03;;;;;;;5.78;0.77;;;;;;;21.41;100.00;100088.50;5024117;28;20032;-73
2023/08/26 08:43:49;;;;;;;5.68;1.30;;;;;;;21.48;100.00;100094.28;5009347;28;20037;-73
2023/08/26 08:46:35;;;;;;;6.43;1.20;;;;;;;21.54;100.00;100089.94;5005112;28;20069;-73
2023/08/26 08:49:20;;;;;;;6.82;0.60;;;;;;;21.64;100.00;100091.28;5038190;28;20097;-73
2023/08/26 08:52:07;;;;;;;4.30;0.73;;;;;;;21.69;100.00;100090.97;5024199;28;20033;-73
2023/08/26 08:54:53;;;;;;;3.55;0.77;;;;;;;21.73;100.00;100099.47;5010310;28;20038;-73
2023/08/26 08:57:38;;;;;;;3.72;0.88;;;;;;;21.84;100.00;100100.47;5036473;28;20041;-73
2023/08/26 09:00:27;;;;;;;3.90;0.70;;;;;;;21.88;100.00;100104.19;5023788;28;20405;-73
2023/08/26 09:03:13;;;;;;;7.10;1.05;;;;;;;21.96;100.00;100102.28;5008710;28;20037;-73
2023/08/26 09:05:58;;;;;;;4.75;0.70;;;;;;;22.04;100.00;100087.06;5023418;28;20044;-73
2023/08/26 09:08:44;;;;;;;3.65;0.70;;;;;;;22.14;100.00;100096.88;5004054;28;20030;-73
2023/08/26 09:11:30;;;;;;;7.47;0.90;;;;;;;22.30;100.00;100094.69;5008886;28;20036;-73
2023/08/26 09:14:16;;;;;;;3.47;0.82;;;;;;;22.49;100.00;100088.09;5004975;28;20103;-73
2023/08/26 09:17:15;;;;;;;3.75;0.80;;;;;;;22.69;100.00;100088.72;5023071;28;20398;-74
2023/08/26 09:20:02;;;;;;;4.38;0.60;;;;;;;22.84;100.00;100087.66;5023119;28;20560;-73
2023/08/26 09:22:48;;;;;;;5.85;0.98;;;;;;;23.01;100.00;100083.41;5022886;28;20568;-74
2023/08/26 09:25:36;;;;;;;7.22;1.00;;;;;;;23.14;100.00;100084.78;5023559;28;20037;-73
2023/08/26 09:28:25;;;;;;;3.78;1.00;;;;;;;23.31;100.00;100091.81;5023411;28;20083;-73
2023/08/26 09:31:11;;;;;;;4.05;0.70;;;;;;;23.41;100.00;100084.63;5010538;28;20037;-73
2023/08/26 09:34:00;;;;;;;5.55;0.77;;;;;;;23.51;100.00;100083.06;5010169;28;20065;-73
2023/08/26 09:36:46;;;;;;;3.53;0.73;;;;;;;23.71;100.00;100083.66;5003303;28;20038;-73
2023/08/26 09:39:32;;;;;;;4.00;0.85;;;;;;;23.91;100.00;100084.22;5012852;28;20042;-73
2023/08/26 09:42:18;;;;;;;4.60;0.80;;;;;;;24.11;100.00;100077.03;5023210;28;20067;-73
2023/08/26 09:45:10;;;;;;;2.92;0.70;;;;;;;24.31;100.00;100088.91;5035060;28;20037;-74
2023/08/26 09:47:55;;;;;;;3.47;0.70;;;;;;;24.45;100.00;100076.81;5023293;28;20060;-73
2023/08/26 09:50:41;;;;;;;4.75;0.68;;;;;;;24.53;100.00;100079.28;5022164;28;20033;-74
2023/08/26 09:53:29;;;;;;;3.72;0.70;;;;;;;24.65;100.00;100072.44;5023025;28;20065;-74
2023/08/26 09:56:15;;;;;;;4.82;0.70;;;;;;;24.84;100.00;100078.97;5016767;28;20046;-73
2023/08/26 09:59:00;;;;;;;2.55;0.60;;;;;;;24.96;100.00;100079.44;5015391;28;20095;-73
2023/08/26 10:01:46;;;;;;;2.45;0.60;;;;;;;25.11;97.77;100082.28;5007567;28;20142;-74
2023/08/26 10:04:33;;;;;;;3.20;0.60;;;;;;;25.21;95.46;100075.03;5008810;28;20550;-73
2023/08/26 10:07:19;;;;;;;6.88;0.70;;;;;;;25.30;94.50;100070.56;5022663;28;20038;-74
2023/08/26 10:10:13;;;;;;;3.70;0.50;;;;;;;25.38;93.78;100075.03;5016421;28;20045;-74
2023/08/26 10:13:01;;;;;;;3.40;0.60;;;;;;;25.39;93.04;100070.16;5034104;28;20285;-73
2023/08/26 10:15:47;;;;;;;4.22;0.70;;;;;;;25.38;93.91;100066.53;5023138;28;20532;-73
2023/08/26 10:18:40;;;;;;;5.05;1.10;;;;;;;25.36;94.56;100073.81;5009466;28;20033;-74
2023/08/26 10:21:25;;;;;;;2.85;0.70;;;;;;;25.35;94.12;100080.72;5035471;28;20462;-74
2023/08/26 10:24:11;;;;;;;2.55;0.88;;;;;;;25.28;95.29;100070.16;5035425;28;20034;-74
2023/08/26 10:26:57;;;;;;;5.70;0.90;;;;;;;25.27;94.49;100079.06;5022916;28;20064;-73
2023/08/26 10:29:43;;;;;;;4.03;0.70;;;;;;;25.17;95.59;100078.66;5009323;28;20049;-74
2023/08/26 10:32:29;;;;;;;3.85;0.70;;;;;;;25.23;95.90;100078.28;5009036;28;20034;-73
2023/08/26 10:35:15;;;;;;;2.63;0.65;;;;;;;25.22;95.57;100076.66;5001162;28;20102;-73
2023/08/26 10:38:11;;;;;;;3.22;0.68;;;;;;;25.26;93.07;100075.44;5034578;28;20025;-73
2023/08/26 10:41:08;;;;;;;2.88;0.55;;;;;;;25.25;91.44;100085.19;5036403;28;20030;-74
2023/08/26 10:43:55;;;;;;;4.15;0.93;;;;;;;25.23;90.18;100079.09;5008082;28;20413;-73
2023/08/26 10:46:54;;;;;;;3.13;0.55;;;;;;;25.21;90.75;100069.34;5004182;28;20076;-73
2023/08/26 10:49:40;;;;;;;2.50;0.52;;;;;;;25.23;92.48;100079.09;5003504;28;20038;-73
2023/08/26 10:52:33;;;;;;;2.83;0.88;;;;;;;25.30;93.04;100066.94;5018538;28;20026;-73
2023/08/26 10:55:30;;;;;;;2.33;0.90;;;;;;;25.41;89.51;100079.09;5024955;28;20096;-73
2023/08/26 10:58:22;;;;;;;4.68;0.70;;;;;;;25.55;93.95;100076.25;5009719;28;20069;-73
2023/08/26 11:01:08;;;;;;;3.00;0.70;;;;;;;25.71;83.01;100070.13;5025791;28;20034;-73
2023/08/26 11:03:54;;;;;;;3.90;0.90;;;;;;;25.92;80.24;100068.53;5026076;28;20104;-74
2023/08/26 11:06:41;;;;;;;4.68;0.95;;;;;;;26.14;81.05;100069.28;5025374;28;20103;-74
2023/08/26 11:09:27;;;;;;;3.00;0.60;;;;;;;26.34;80.41;100067.59;5024744;28;20065;-74
2023/08/26 11:12:25;;;;;;;2.38;0.63;;;;;;;26.60;73.54;100057.72;5030309;28;20065;-74
2023/08/26 11:15:12;;;;;;;1.98;0.73;;;;;;;26.84;72.74;100058.00;5026133;28;20098;-73
2023/08/26 11:17:58;;;;;;;2.20;0.70;;;;;;;27.08;68.89;100064.75;5025565;28;20103;-74
2023/08/26 11:20:44;;;;;;;2.55;0.77;;;;;;;27.31;66.14;100045.09;5010984;28;20486;-74
2023/08/26 11:23:30;;;;;;;3.42;0.60;;;;;;;27.50;67.71;100051.47;5012234;28;20055;-74
2023/08/26 11:26:20;;;;;;;2.92;0.70;;;;;;;27.62;61.29;100053.78;5025564;28;20038;-74
2023/08/26 11:29:06;;;;;;;3.03;0.90;;;;;;;27.79;63.00;100052.81;5039197;28;20041;-74
2023/08/26 11:31:52;;;;;;;1.90;0.68;;;;;;;27.84;57.21;100049.50;5025661;28;20104;-74
2023/08/26 11:34:37;;;;;;;2.80;0.63;;;;;;;27.92;57.32;100052.31;5025499;28;20147;-74
2023/08/26 11:37:23;;;;;;;3.83;0.63;;;;;;;27.97;58.20;100046.09;5024713;28;20499;-74
2023/08/26 11:40:10;;;;;;;2.97;0.50;;;;;;;28.02;58.24;100054.22;5011134;28;20064;-73
2023/08/26 11:42:56;;;;;;;2.45;0.60;;;;;;;28.00;58.69;100048.09;5025367;28;20109;-73
2023/08/26 11:45:42;;;;;;;1.83;0.50;;;;;;;27.99;57.49;100044.44;5024974;28;20040;-73
2023/08/26 11:48:28;;;;;;;2.05;0.68;;;;;;;28.05;56.75;100036.22;5037169;28;20486;-74
2023/08/26 11:51:14;;;;;;;2.05;0.60;;;;;;;28.13;56.73;100039.81;5011107;28;20036;-74
2023/08/26 11:53:59;;;;;;;3.65;0.70;;;;;;;28.27;54.61;100036.78;5010935;28;20097;-73
2023/08/26 11:56:46;;;;;;;2.13;0.55;;;;;;;28.39;54.25;100035.41;5021589;28;20108;-73
2023/08/26 11:59:43;;;;;;;2.80;0.80;;;;;;;28.50;52.34;100031.22;5025050;28;20029;-73
2023/08/26 12:02:29;;;;;;;2.20;0.77;;;;;;;28.66;50.58;100030.59;5037245;28;20038;-74
2023/08/26 12:05:15;;;;;;;2.17;0.47;;;;;;;28.76;50.64;100025.97;5037313;28;20403;-74
2023/08/26 12:08:02;;;;;;;2.33;0.90;;;;;;;28.90;50.99;100027.81;5024938;28;20045;-74
2023/08/26 12:10:52;;;;;;;3.08;0.68;;;;;;;28.98;49.07;100025.66;5011278;28;20111;-74
2023/08/26 12:13:38;;;;;;;1.90;0.63;;;;;;;29.02;48.76;100030.06;5024874;28;20093;-74
2023/08/26 12:16:24;;;;;;;2.72;0.52;;;;;;;28.99;47.97;100025.22;5010683;28;20038;-73
2023/08/26 12:19:17;;;;;;;2.42;0.60;;;;;;;28.94;50.19;100019.97;5006166;28;20054;-74
2023/08/26 12:22:03;;;;;;;1.67;0.73;;;;;;;28.87;51.23;100018.03;5004550;28;20356;-73
2023/08/26 12:24:49;;;;;;;0.85;0.40;;;;;;;28.84;52.30;100018.09;5019054;28;20042;-74
2023/08/26 12:27:40;;;;;;;1.02;0.50;;;;;;;28.86;51.50;100012.75;5036193;28;20036;-73
2023/08/26 12:30:25;;;;;;;2.45;0.70;;;;;;;28.86;51.78;100012.75;5036158;28;20113;-73
2023/08/26 12:33:11;;;;;;;2.85;0.60;;;;;;;28.87;51.81;100012.34;5010266;28;20025;-74
2023/08/26 12:35:57;;;;;;;3.83;0.77;;;;;;;28.85;47.06;99999.72;5005318;28;20038;-73
2023/08/26 12:38:43;;;;;;;1.77;0.40;;;;;;;28.91;48.11;100006.56;5036830;28;20044;-73
2023/08/26 12:41:29;;;;;;;1.52;0.55;;;;;;;28.90;46.97;100000.03;5017566;28;20529;-73
2023/08/26 12:44:14;;;;;;;2.22;0.63;;;;;;;28.94;48.21;99995.06;5023494;28;20624;-73
2023/08/26 12:47:00;;;;;;;2.65;0.65;;;;;;;29.00;49.21;100000.28;5009152;28;20040;-74